createdAt,value
2023-04-06T00:00:12.523Z,17
2023-04-06T00:15:14.303Z,17
2023-04-06T00:30:16.096Z,13
2023-04-06T00:45:17.907Z,10
2023-04-06T01:00:19.627Z,8
2023-04-06T01:15:21.484Z,6
2023-04-06T01:30:23.334Z,6
2023-04-06T01:45:25.050Z,3
2023-04-06T02:00:26.797Z,2
2023-04-06T02:15:28.550Z,1
2023-04-06T02:30:30.364Z,1
2023-04-06T02:45:32.137Z,1
2023-04-06T03:00:33.939Z,0
2023-04-06T03:15:35.746Z,0
2023-04-06T03:30:37.541Z,0
2023-04-06T03:45:39.269Z,0
2023-04-06T04:00:40.957Z,0
2023-04-06T04:15:42.694Z,0
2023-04-06T04:30:44.458Z,0
2023-04-06T04:45:46.252Z,0
2023-04-06T05:00:48.015Z,0
2023-04-06T05:15:49.811Z,0
2023-04-06T05:30:51.804Z,0
2023-04-06T05:45:53.581Z,0
2023-04-06T06:00:56.464Z,0
2023-04-06T06:15:58.307Z,0
2023-04-06T06:31:00.133Z,0
2023-04-06T06:46:01.967Z,0
2023-04-06T07:01:03.846Z,0
2023-04-06T07:16:05.862Z,0
2023-04-06T07:31:07.642Z,0
2023-04-06T07:46:09.514Z,0
2023-04-06T08:01:11.321Z,0
2023-04-06T08:16:13.186Z,0
2023-04-06T08:31:15.025Z,0
2023-04-06T08:46:16.907Z,0
2023-04-06T09:01:18.724Z,0
2023-04-06T09:16:20.524Z,0
2023-04-06T09:31:22.551Z,0
2023-04-06T09:46:24.380Z,0
2023-04-06T10:01:26.215Z,0
2023-04-06T10:16:28.030Z,0
2023-04-06T10:31:29.898Z,0
2023-04-06T10:46:31.692Z,0
2023-04-06T11:01:33.597Z,0
2023-04-06T11:16:35.462Z,0
2023-04-06T11:31:37.392Z,0
2023-04-06T11:46:39.183Z,0
2023-04-06T12:01:41.010Z,0
2023-04-06T12:16:42.788Z,0
2023-04-06T12:31:44.648Z,0
2023-04-06T12:46:46.415Z,0
2023-04-06T13:01:48.282Z,0
2023-04-06T13:16:50.144Z,0
2023-04-06T13:31:51.949Z,1
2023-04-06T13:46:53.727Z,2
2023-04-06T14:01:55.530Z,2
2023-04-06T14:16:57.418Z,3
2023-04-06T14:31:59.269Z,5
2023-04-06T14:47:01.021Z,5
2023-04-06T15:02:02.881Z,6
2023-04-06T15:17:04.719Z,9
2023-04-06T15:32:06.748Z,11
2023-04-06T15:47:08.495Z,14
2023-04-06T16:02:10.300Z,13
2023-04-06T16:17:12.048Z,13
2023-04-06T16:32:13.811Z,11
2023-04-06T16:47:15.614Z,13
2023-04-06T17:02:17.508Z,14
2023-04-06T17:17:19.517Z,16
2023-04-06T17:32:21.259Z,16
2023-04-06T17:47:23.140Z,21
2023-04-06T18:02:25.045Z,18
2023-04-06T18:17:27.063Z,21
2023-04-06T18:32:28.849Z,23
2023-04-06T18:47:30.641Z,20
2023-04-06T19:02:32.537Z,16
2023-04-06T19:17:34.456Z,16
2023-04-06T19:32:36.284Z,15
2023-04-06T19:47:38.188Z,22
2023-04-06T20:02:40.006Z,20
2023-04-06T20:17:42.004Z,25
2023-04-06T20:32:43.890Z,26
2023-04-06T20:47:45.777Z,25
2023-04-06T21:02:47.698Z,25
2023-04-06T21:17:49.683Z,23
2023-04-06T21:32:51.710Z,38
2023-04-06T21:47:53.578Z,45
2023-04-06T22:02:55.843Z,29
2023-04-06T22:17:57.934Z,31
2023-04-06T22:32:59.811Z,12
2023-04-06T22:48:01.568Z,15
2023-04-06T23:03:03.499Z,18
2023-04-06T23:18:05.561Z,18
2023-04-06T23:33:07.426Z,20
2023-04-06T23:48:09.213Z,16
